Time;durP1;ratioP1;P1;durP2;ratioP2;P2;SDS_P1;SDS_P2;PMS_P1;PMS_P2;Temp;Humidity;BMP_temperature;BMP_pressure;BME280_temperature;BME280_humidity;BME280_pressure;Samples;Min_cycle;Max_cycle;Signal;HPM_P1;HPM_P2
2021/07/24 00:02:23;;;;;;;7.72;3.20;;;;;;;15.56;69.40;96514.25;5054575;28;20121;-73
2021/07/24 00:04:49;;;;;;;6.10;2.95;;;;;;;15.58;68.51;96511.53;5054638;28;20099;-71
2021/07/24 00:07:14;;;;;;;6.28;3.38;;;;;;;15.47;68.88;96510.38;5054582;28;20467;-72
2021/07/24 00:09:40;;;;;;;7.03;3.35;;;;;;;15.38;70.63;96517.03;5054558;28;20025;-70
2021/07/24 00:12:06;;;;;;;5.25;3.50;;;;;;;15.29;70.82;96507.00;5054502;28;20036;-74
2021/07/24 00:14:32;;;;;;;5.93;3.28;;;;;;;15.37;70.32;96507.44;5054487;28;20014;-71
2021/07/24 00:16:57;;;;;;;5.47;4.00;;;;;;;15.37;70.16;96507.44;5054580;28;20043;-73
2021/07/24 00:19:23;;;;;;;4.97;3.55;;;;;;;15.44;69.81;96510.53;5054386;28;20462;-72
2021/07/24 00:21:48;;;;;;;6.32;3.70;;;;;;;15.50;69.28;96504.09;5054364;28;20025;-70
2021/07/24 00:24:14;;;;;;;4.15;3.30;;;;;;;15.45;68.96;96504.34;5054184;28;20017;-71
2021/07/24 00:26:39;;;;;;;6.07;3.03;;;;;;;15.43;69.31;96500.94;5054298;28;20474;-70
2021/07/24 00:29:06;;;;;;;8.05;3.67;;;;;;;15.47;69.32;96510.38;5054134;28;20153;-72
2021/07/24 00:31:33;;;;;;;5.50;3.10;;;;;;;15.42;68.83;96504.53;5054186;28;20082;-70
2021/07/24 00:33:58;;;;;;;4.28;3.03;;;;;;;15.43;69.09;96503.59;5054137;28;20110;-72
2021/07/24 00:36:24;;;;;;;6.32;3.72;;;;;;;15.45;68.96;96499.09;5054046;28;20463;-73
2021/07/24 00:38:50;;;;;;;4.13;3.55;;;;;;;15.46;68.72;96495.50;5053290;28;20029;-72
2021/07/24 00:41:41;;;;;;;4.75;3.15;;;;;;;15.49;68.25;96495.31;5053979;28;20029;-72
2021/07/24 00:44:08;;;;;;;6.82;3.67;;;;;;;15.44;68.78;96497.38;5053971;28;20028;-71
2021/07/24 00:46:35;;;;;;;5.05;3.53;;;;;;;15.45;68.58;96492.94;5053830;28;20142;-71
2021/07/24 00:49:02;;;;;;;5.28;3.28;;;;;;;15.38;68.30;96493.31;5053822;28;20025;-70
2021/07/24 00:51:31;;;;;;;4.13;3.15;;;;;;;15.32;69.08;96498.94;5053728;28;20017;-71
2021/07/24 00:53:57;;;;;;;3.40;3.05;;;;;;;15.31;68.67;96488.47;5053513;28;20476;-70
2021/07/24 00:56:25;;;;;;;6.28;3.75;;;;;;;15.24;69.17;96488.84;5053676;28;20043;-73
2021/07/24 00:58:51;;;;;;;6.18;3.70;;;;;;;15.27;69.29;96491.28;5053495;28;20025;-71
2021/07/24 01:01:16;;;;;;;3.92;3.20;;;;;;;15.32;68.90;96487.56;5053604;28;20017;-72
2021/07/24 01:03:42;;;;;;;8.98;3.60;;;;;;;15.26;69.05;96489.59;5053601;28;20079;-71
2021/07/24 01:06:07;;;;;;;4.20;3.53;;;;;;;15.26;69.45;96488.78;5053539;28;20475;-71
2021/07/24 01:08:36;;;;;;;9.95;3.58;;;;;;;15.29;69.34;96486.78;5053390;28;20364;-73
2021/07/24 01:11:03;;;;;;;3.80;3.33;;;;;;;15.24;68.55;96488.00;5053519;28;20075;-73
2021/07/24 01:13:29;;;;;;;5.35;3.40;;;;;;;15.16;68.83;96486.66;5053406;28;20029;-71
2021/07/24 01:15:55;;;;;;;6.18;3.40;;;;;;;15.14;69.22;96485.88;5053340;28;20505;-72
2021/07/24 01:18:21;;;;;;;5.53;4.03;;;;;;;15.13;69.01;96478.94;5053317;28;20021;-71
2021/07/24 01:20:51;;;;;;;10.23;3.35;;;;;;;15.15;68.70;96486.75;5053209;28;20029;-71
2021/07/24 01:23:18;;;;;;;5.65;3.95;;;;;;;15.05;68.95;96477.66;5053247;28;20109;-70
2021/07/24 01:25:49;;;;;;;4.97;3.38;;;;;;;15.03;69.40;96475.94;5053097;28;20036;-72
2021/07/24 01:28:26;;;;;;;7.93;3.55;;;;;;;14.99;69.34;96471.81;5053093;28;20086;-71
2021/07/24 01:30:54;;;;;;;5.97;3.17;;;;;;;15.05;68.89;96477.66;5053230;28;20025;-70
2021/07/24 01:33:20;;;;;;;4.00;3.63;;;;;;;15.02;68.86;96470.81;5053129;28;20021;-71
2021/07/24 01:35:47;;;;;;;4.82;3.45;;;;;;;14.97;69.21;96472.84;5053064;28;20447;-71
2021/07/24 01:38:16;;;;;;;3.97;3.28;;;;;;;14.97;69.17;96472.84;5053106;28;20025;-70
2021/07/24 01:40:42;;;;;;;6.85;4.15;;;;;;;14.95;68.86;96480.81;5053033;28;20025;-71
2021/07/24 01:43:08;;;;;;;5.65;3.45;;;;;;;14.95;68.63;96465.03;5053041;28;20120;-71
2021/07/24 01:45:35;;;;;;;5.55;3.47;;;;;;;14.93;69.04;96461.63;5052932;28;20074;-70
2021/07/24 01:48:03;;;;;;;8.77;3.67;;;;;;;14.88;69.39;96466.31;5052877;28;20056;-72
2021/07/24 01:53:14;;;;;;;6.47;3.47;;;;;;;14.82;69.06;96461.38;5059618;28;20110;-72
2021/07/24 01:55:44;;;;;;;10.32;4.15;;;;;;;14.74;69.36;96456.50;5059629;28;20032;-72
2021/07/24 01:58:16;;;;;;;5.15;4.15;;;;;;;14.70;69.23;96463.75;5059639;28;20028;-70
2021/07/24 02:00:44;;;;;;;4.65;3.78;;;;;;;14.63;69.79;96462.41;5059568;28;20036;-72
2021/07/24 02:03:12;;;;;;;5.75;3.40;;;;;;;14.60;69.67;96460.75;5059656;28;20060;-71
2021/07/24 02:05:43;;;;;;;5.13;3.35;;;;;;;14.60;70.11;96463.41;5059465;28;20021;-73
2021/07/24 02:08:11;;;;;;;4.82;3.63;;;;;;;14.60;69.69;96463.41;5059381;28;20124;-72
2021/07/24 02:10:40;;;;;;;4.97;3.63;;;;;;;14.60;69.37;96466.03;5059382;28;20100;-70
2021/07/24 02:13:06;;;;;;;9.02;3.65;;;;;;;14.52;69.85;96465.63;5059317;28;20029;-71
2021/07/24 02:15:33;;;;;;;5.85;3.75;;;;;;;14.53;69.77;96470.81;5059358;28;20032;-74
2021/07/24 02:18:00;;;;;;;5.10;3.63;;;;;;;14.49;69.96;96466.66;5059287;28;20025;-72
2021/07/24 02:20:26;;;;;;;6.13;3.38;;;;;;;14.47;69.73;96463.22;5059306;28;20029;-72
2021/07/24 02:22:54;;;;;;;5.82;3.30;;;;;;;14.44;69.89;96459.91;5059300;28;20045;-72
2021/07/24 02:25:19;;;;;;;5.65;3.55;;;;;;;14.47;69.79;96465.00;5059312;28;20368;-71
2021/07/24 02:27:46;;;;;;;4.47;3.42;;;;;;;14.44;69.68;96467.81;5059185;28;20025;-71
2021/07/24 02:30:13;;;;;;;5.47;3.88;;;;;;;14.40;69.71;96456.63;5059339;28;20609;-72
2021/07/24 02:32:38;;;;;;;5.60;4.18;;;;;;;14.36;69.76;96458.56;5059180;28;20049;-71
2021/07/24 02:35:04;;;;;;;5.60;3.70;;;;;;;14.39;69.81;96463.66;5059180;28;20020;-72
2021/07/24 02:37:30;;;;;;;9.57;3.60;;;;;;;14.37;69.93;96468.16;5059176;28;20483;-71
2021/07/24 02:39:55;;;;;;;6.28;3.67;;;;;;;14.40;70.00;96467.13;5059233;28;20028;-71
2021/07/24 02:42:21;;;;;;;7.85;4.20;;;;;;;14.37;69.79;96467.31;5059150;28;20024;-70
2021/07/24 02:44:46;;;;;;;7.78;3.67;;;;;;;14.28;70.32;96469.53;5059116;28;20025;-72
2021/07/24 02:47:12;;;;;;;5.43;3.78;;;;;;;14.28;70.38;96472.16;5059004;28;20013;-72
2021/07/24 02:49:38;;;;;;;5.60;4.07;;;;;;;14.32;69.99;96472.81;5059175;28;20017;-70
2021/07/24 02:52:04;;;;;;;10.00;3.90;;;;;;;14.34;69.63;96468.34;5059139;28;20110;-72
2021/07/24 02:54:30;;;;;;;6.97;3.97;;;;;;;14.31;70.17;96467.63;5058877;28;20126;-69
2021/07/24 02:56:56;;;;;;;6.63;3.58;;;;;;;14.26;70.09;96473.13;5059046;28;20075;-71
2021/07/24 02:59:21;;;;;;;7.80;4.10;;;;;;;14.30;69.91;96471.22;5058975;28;20028;-70
2021/07/24 03:01:47;;;;;;;7.10;3.90;;;;;;;14.37;69.83;96476.06;5056385;28;20106;-70
2021/07/24 03:04:12;;;;;;;5.28;3.92;;;;;;;14.40;69.75;96475.91;5055928;28;20060;-73
2021/07/24 03:06:38;;;;;;;6.80;3.58;;;;;;;14.40;69.49;96475.03;5055829;28;20463;-73
2021/07/24 03:09:06;;;;;;;6.75;3.83;;;;;;;14.37;69.36;96481.31;5055578;28;20104;-71
2021/07/24 03:11:36;;;;;;;9.18;4.90;;;;;;;14.32;69.55;96470.19;5055635;28;20029;-71
2021/07/24 03:14:02;;;;;;;5.22;3.83;;;;;;;14.33;70.00;96476.31;5055627;28;20542;-72
2021/07/24 03:16:28;;;;;;;8.32;4.50;;;;;;;14.37;70.22;96469.94;5055561;28;20493;-71
2021/07/24 03:18:53;;;;;;;4.60;3.90;;;;;;;14.39;69.98;96466.28;5055560;28;20028;-71
2021/07/24 03:21:20;;;;;;;6.10;4.25;;;;;;;14.43;69.84;96474.00;5055394;28;20386;-71
2021/07/24 03:23:45;;;;;;;4.78;4.15;;;;;;;14.47;70.17;96471.13;5055440;28;20017;-72
2021/07/24 03:26:11;;;;;;;5.35;4.13;;;;;;;14.57;69.87;96470.63;5055280;28;20025;-71
2021/07/24 03:28:37;;;;;;;8.05;4.07;;;;;;;14.59;69.93;96481.91;5055149;28;20039;-70
2021/07/24 03:31:03;;;;;;;7.80;4.20;;;;;;;14.67;70.02;96474.44;5055373;28;20029;-70
2021/07/24 03:33:29;;;;;;;8.15;4.50;;;;;;;14.68;69.71;96468.25;5055174;28;20144;-71
2021/07/24 03:35:54;;;;;;;5.97;4.45;;;;;;;14.71;69.87;96460.19;5055259;28;20478;-72
2021/07/24 03:38:20;;;;;;;6.53;4.93;;;;;;;14.78;69.53;96471.25;5055228;28;20024;-72
2021/07/24 03:40:46;;;;;;;6.18;4.43;;;;;;;14.87;69.75;96467.25;5055160;28;20455;-70
2021/07/24 03:43:13;;;;;;;6.88;4.63;;;;;;;14.89;69.81;96471.50;5055113;28;20032;-73
2021/07/24 03:45:39;;;;;;;5.30;4.30;;;;;;;14.96;69.50;96474.59;5055002;28;20029;-71
2021/07/24 03:48:05;;;;;;;7.35;4.72;;;;;;;15.06;69.47;96480.22;5054826;28;20056;-70
2021/07/24 03:50:31;;;;;;;6.88;4.57;;;;;;;15.30;69.31;96477.09;5054956;28;20025;-69
2021/07/24 03:52:57;;;;;;;5.95;4.43;;;;;;;15.58;68.23;96471.97;5054703;28;20037;-71
2021/07/24 03:55:23;;;;;;;6.85;4.00;;;;;;;15.87;67.83;96475.50;5054890;28;20116;-70
2021/07/24 03:57:50;;;;;;;7.35;3.88;;;;;;;16.24;66.87;96479.50;5054784;28;20033;-71
2021/07/24 04:00:16;;;;;;;10.52;4.60;;;;;;;16.61;65.83;96476.34;5054648;28;20033;-73
2021/07/24 04:02:43;;;;;;;7.90;4.22;;;;;;;16.98;65.14;96478.41;5054820;28;20431;-70
2021/07/24 04:05:10;;;;;;;6.45;4.13;;;;;;;17.33;64.22;96475.28;5054674;28;20025;-71
2021/07/24 04:07:37;;;;;;;7.80;4.20;;;;;;;17.74;63.16;96481.38;5054534;28;20019;-70
2021/07/24 04:10:04;;;;;;;5.47;4.35;;;;;;;18.13;62.69;96480.56;5054470;28;20057;-71
2021/07/24 04:12:31;;;;;;;10.15;3.85;;;;;;;18.47;61.40;96480.81;5053927;28;20021;-70
2021/07/24 04:14:58;;;;;;;8.43;4.03;;;;;;;18.81;60.30;96477.53;5053793;28;20025;-69
2021/07/24 04:17:23;;;;;;;7.07;3.80;;;;;;;19.15;59.93;96482.22;5054565;28;20036;-70
2021/07/24 04:19:49;;;;;;;7.57;3.97;;;;;;;19.48;59.10;96471.84;5053084;28;20025;-70
2021/07/24 04:22:15;;;;;;;5.20;4.15;;;;;;;19.83;58.04;96474.47;5054235;28;20029;-69
2021/07/24 04:24:40;;;;;;;8.90;4.07;;;;;;;20.11;57.11;96473.34;5054334;28;20359;-72
2021/07/24 04:27:09;;;;;;;8.15;4.13;;;;;;;20.44;56.55;96467.16;5054253;28;20029;-70
2021/07/24 04:29:34;;;;;;;6.30;4.00;;;;;;;20.79;56.01;96470.63;5054125;28;20029;-70
2021/07/24 04:32:02;;;;;;;6.38;3.58;;;;;;;21.13;55.31;96464.38;5054130;28;20025;-71
2021/07/24 04:34:29;;;;;;;9.82;4.28;;;;;;;21.43;54.31;96473.44;5054066;28;20013;-68
2021/07/24 04:36:55;;;;;;;5.03;3.90;;;;;;;21.76;54.14;96470.75;5054096;28;20021;-71
2021/07/24 04:39:20;;;;;;;5.45;3.70;;;;;;;21.99;54.02;96472.44;5054138;28;20450;-69
2021/07/24 04:41:46;;;;;;;7.32;4.05;;;;;;;22.30;53.33;96475.09;5053909;28;20482;-69
2021/07/24 04:44:11;;;;;;;5.82;4.10;;;;;;;22.55;52.51;96478.28;5053885;28;20471;-70
2021/07/24 04:46:37;;;;;;;5.10;3.67;;;;;;;22.68;52.42;96478.94;5053883;28;20391;-68
2021/07/24 04:49:03;;;;;;;8.30;3.83;;;;;;;22.91;51.88;96476.00;5053613;28;20116;-70
2021/07/24 04:51:29;;;;;;;6.85;3.95;;;;;;;23.14;51.00;96472.28;5053710;28;20047;-69
2021/07/24 04:53:55;;;;;;;5.75;3.33;;;;;;;23.45;51.33;96472.16;5053637;28;20045;-69
2021/07/24 04:56:21;;;;;;;5.35;3.85;;;;;;;23.82;50.45;96471.44;5053707;28;20021;-69
2021/07/24 04:58:49;;;;;;;5.38;3.70;;;;;;;24.11;49.47;96475.84;5053521;28;20036;-69
2021/07/24 05:01:14;;;;;;;8.43;4.25;;;;;;;24.32;49.34;96466.78;5053700;28;20029;-69
2021/07/24 05:03:40;;;;;;;4.97;4.03;;;;;;;24.54;48.34;96470.09;5053495;28;20032;-70
2021/07/24 05:06:06;;;;;;;7.32;4.05;;;;;;;24.75;48.28;96477.00;5053569;28;20025;-69
2021/07/24 05:08:36;;;;;;;4.82;3.78;;;;;;;25.05;47.91;96476.84;5053442;28;20024;-70
2021/07/24 05:11:02;;;;;;;8.48;3.88;;;;;;;25.37;48.33;96475.47;5053518;28;20048;-70
2021/07/24 05:13:28;;;;;;;7.57;3.97;;;;;;;25.66;47.69;96479.78;5053373;28;20467;-71
2021/07/24 05:15:53;;;;;;;6.53;4.28;;;;;;;25.93;47.00;96482.47;5053244;28;20024;-69
2021/07/24 05:18:19;;;;;;;7.20;4.95;;;;;;;26.17;46.72;96476.44;5053312;28;20029;-70
2021/07/24 05:20:45;;;;;;;7.80;4.63;;;;;;;26.44;46.85;96474.59;5053242;28;20021;-70
2021/07/24 05:23:11;;;;;;;5.63;4.40;;;;;;;26.68;45.89;96482.91;5053286;28;20017;-69
2021/07/24 05:25:37;;;;;;;7.38;4.32;;;;;;;26.94;44.71;96484.69;5052875;28;20033;-69
2021/07/24 05:28:03;;;;;;;6.22;4.50;;;;;;;27.17;44.75;96487.59;5053085;28;20040;-71
2021/07/24 05:30:29;;;;;;;11.63;5.57;;;;;;;27.42;40.72;96487.63;5053190;28;20021;-71
2021/07/24 05:32:55;;;;;;;6.82;5.40;;;;;;;27.58;43.21;96485.97;5053059;28;20029;-69
2021/07/24 05:35:21;;;;;;;6.53;4.80;;;;;;;27.80;42.16;96487.16;5053048;28;20036;-69
2021/07/24 05:37:46;;;;;;;5.78;4.63;;;;;;;27.79;40.61;96484.66;5053150;28;20025;-71
2021/07/24 05:40:12;;;;;;;5.60;4.63;;;;;;;27.93;41.20;96488.50;5053115;28;20379;-69
2021/07/24 05:42:38;;;;;;;5.68;4.22;;;;;;;28.16;42.56;96482.41;5053000;28;20021;-70
2021/07/24 05:45:04;;;;;;;8.05;4.88;;;;;;;28.43;42.04;96478.50;5052932;28;20104;-71
2021/07/24 05:47:33;;;;;;;5.28;4.38;;;;;;;28.68;40.86;96483.78;5051707;28;20029;-69
2021/07/24 05:50:00;;;;;;;6.72;5.07;;;;;;;28.94;41.23;96487.22;5053038;28;20021;-70
2021/07/24 05:52:26;;;;;;;5.22;4.32;;;;;;;29.20;41.61;96484.22;5052692;28;20024;-70
2021/07/24 05:54:52;;;;;;;8.52;4.47;;;;;;;29.44;40.34;96490.47;5052976;28;20031;-71
2021/07/24 05:57:18;;;;;;;7.45;4.93;;;;;;;29.57;39.72;96492.59;5052875;28;20074;-70
2021/07/24 05:59:44;;;;;;;9.25;4.68;;;;;;;29.72;37.45;96489.09;5052765;28;20048;-71
2021/07/24 06:02:13;;;;;;;11.23;5.07;;;;;;;29.54;37.35;96490.22;5052729;28;20029;-72
2021/07/24 06:04:40;;;;;;;6.50;4.95;;;;;;;29.24;38.42;96492.78;5052786;28;20020;-69
2021/07/24 06:07:06;;;;;;;11.77;5.50;;;;;;;28.93;41.87;96497.19;5052713;28;20029;-72
2021/07/24 06:09:32;;;;;;;8.50;5.00;;;;;;;28.60;42.16;96486.53;5052743;28;20039;-71
2021/07/24 06:11:58;;;;;;;8.10;4.60;;;;;;;28.65;42.83;96489.50;5052795;28;20028;-71
2021/07/24 06:14:24;;;;;;;8.48;4.78;;;;;;;28.92;39.56;96489.25;5052782;28;20033;-73
2021/07/24 06:16:54;;;;;;;5.57;4.43;;;;;;;29.16;39.86;96490.16;5052735;28;20387;-72
2021/07/24 06:19:20;;;;;;;7.20;4.70;;;;;;;29.34;38.34;96496.06;5052679;28;20095;-70
2021/07/24 06:21:47;;;;;;;5.57;4.22;;;;;;;29.32;36.28;96487.34;5052575;28;20060;-72
2021/07/24 06:24:16;;;;;;;14.73;5.03;;;;;;;28.60;34.57;96483.84;5052586;28;20483;-72
2021/07/24 06:26:42;;;;;;;8.15;3.83;;;;;;;28.11;35.25;96491.00;5052593;28;20017;-72
2021/07/24 06:29:08;;;;;;;4.72;3.15;;;;;;;27.71;35.35;96489.03;5052629;28;20513;-70
2021/07/24 06:31:36;;;;;;;8.73;3.97;;;;;;;27.24;36.60;96485.94;5052604;28;20036;-70
2021/07/24 06:34:02;;;;;;;6.05;3.67;;;;;;;27.23;37.15;96492.31;5052446;28;20052;-69
2021/07/24 06:36:28;;;;;;;4.47;3.63;;;;;;;27.15;38.01;96486.09;5053092;28;20095;-70
2021/07/24 06:38:53;;;;;;;7.82;3.78;;;;;;;26.83;37.05;96486.66;5056236;28;20049;-70
2021/07/24 06:41:19;;;;;;;10.30;3.88;;;;;;;26.68;37.85;96481.06;5056246;28;20036;-71
2021/07/24 06:43:45;;;;;;;5.60;3.70;;;;;;;26.85;39.27;96489.19;5056208;28;20425;-70
2021/07/24 06:46:11;;;;;;;5.85;3.45;;;;;;;26.78;37.86;96488.16;5056233;28;20050;-70
2021/07/24 06:48:37;;;;;;;6.90;3.80;;;;;;;26.81;38.04;96487.81;5056051;28;20060;-71
2021/07/24 06:51:06;;;;;;;8.85;3.67;;;;;;;26.70;38.35;96488.97;5056262;28;20052;-70
2021/07/24 06:53:33;;;;;;;5.65;3.20;;;;;;;26.71;37.38;96485.25;5055948;28;20491;-70
2021/07/24 06:55:59;;;;;;;4.80;3.03;;;;;;;26.69;36.51;96495.31;5056086;28;20032;-72
2021/07/24 06:58:24;;;;;;;5.47;3.33;;;;;;;26.70;36.54;96489.78;5055810;28;20025;-73
2021/07/24 07:00:50;;;;;;;8.57;3.00;;;;;;;27.03;36.25;96494.44;5055871;28;20021;-70
2021/07/24 07:03:16;;;;;;;5.82;3.75;;;;;;;27.22;36.22;96492.47;5055783;28;20021;-71
2021/07/24 07:05:44;;;;;;;5.45;3.10;;;;;;;27.66;38.04;96493.22;5055681;28;20151;-70
2021/07/24 07:08:10;;;;;;;5.38;3.40;;;;;;;28.03;35.59;96486.47;5055757;28;20035;-69
2021/07/24 07:10:35;;;;;;;6.65;3.65;;;;;;;28.20;34.82;96489.13;5055725;28;20108;-73
2021/07/24 07:13:01;;;;;;;7.15;3.65;;;;;;;28.33;33.98;96483.25;5055680;28;20171;-71
2021/07/24 07:15:28;;;;;;;9.23;3.42;;;;;;;28.55;34.34;96488.88;5055568;28;20440;-71
2021/07/24 07:17:54;;;;;;;7.10;3.80;;;;;;;28.69;34.08;96477.41;5055630;28;20047;-70
2021/07/24 07:20:20;;;;;;;5.47;3.30;;;;;;;28.82;32.93;96489.44;5055543;28;20028;-72
2021/07/24 07:22:46;;;;;;;7.28;2.95;;;;;;;29.13;32.88;96483.25;5055494;28;20028;-72
2021/07/24 07:25:12;;;;;;;13.45;3.50;;;;;;;29.32;31.26;96483.81;5055669;28;20021;-70
2021/07/24 07:27:42;;;;;;;8.68;3.20;;;;;;;29.35;33.59;96478.06;5055363;28;20467;-69
2021/07/24 07:30:09;;;;;;;4.83;2.90;;;;;;;29.03;31.90;96483.47;5055550;28;20021;-71
2021/07/24 07:32:35;;;;;;;10.35;3.63;;;;;;;28.75;33.21;96479.38;5055309;28;20017;-71
2021/07/24 07:35:01;;;;;;;6.15;3.58;;;;;;;28.72;31.70;96482.41;5055174;28;20079;-72
2021/07/24 07:37:26;;;;;;;4.97;3.50;;;;;;;28.53;32.56;96478.28;5055280;28;20025;-71
2021/07/24 07:39:52;;;;;;;6.18;4.60;;;;;;;28.63;31.97;96486.19;5053906;28;20036;-74
2021/07/24 07:42:18;;;;;;;9.77;3.78;;;;;;;28.61;31.58;96475.59;5055225;28;20378;-70
2021/07/24 07:44:43;;;;;;;5.30;3.50;;;;;;;28.67;31.73;96482.13;5055111;28;20017;-70
2021/07/24 07:47:09;;;;;;;4.82;3.63;;;;;;;28.55;33.23;96483.50;5054652;28;20029;-73
2021/07/24 07:49:35;;;;;;;9.35;4.22;;;;;;;28.91;32.80;96488.41;5054989;28;20075;-70
2021/07/24 07:52:01;;;;;;;6.32;4.63;;;;;;;29.08;30.97;96486.47;5054911;28;20013;-73
2021/07/24 07:54:30;;;;;;;6.10;3.40;;;;;;;28.82;30.75;96482.22;5054850;28;20052;-70
2021/07/24 07:57:02;;;;;;;5.90;3.47;;;;;;;28.63;32.15;96478.94;5054933;28;20027;-69
2021/07/24 07:59:29;;;;;;;6.53;3.83;;;;;;;28.88;32.62;96475.28;5054940;28;20032;-72
2021/07/24 08:01:54;;;;;;;6.03;4.00;;;;;;;29.25;32.02;96475.59;5054685;28;20017;-72
2021/07/24 08:04:20;;;;;;;8.00;3.70;;;;;;;29.52;32.47;96481.47;5054874;28;20105;-72
2021/07/24 08:06:46;;;;;;;11.00;4.32;;;;;;;29.48;33.65;96483.69;5054802;28;20053;-70
2021/07/24 08:09:12;;;;;;;5.63;3.83;;;;;;;29.79;30.91;96478.44;5054547;28;20032;-72
2021/07/24 08:11:37;;;;;;;8.95;3.90;;;;;;;29.95;32.48;96483.66;5054571;28;20029;-72
2021/07/24 08:14:03;;;;;;;8.05;3.70;;;;;;;30.08;32.17;96485.75;5054413;28;20478;-72
2021/07/24 08:16:29;;;;;;;6.43;3.67;;;;;;;29.89;30.53;96484.41;5054391;28;20052;-72
2021/07/24 08:18:55;;;;;;;6.22;3.78;;;;;;;29.62;30.81;96487.47;5054681;28;20021;-70
2021/07/24 08:21:20;;;;;;;5.88;4.03;;;;;;;29.49;30.88;96484.53;5054338;28;20024;-71
2021/07/24 08:23:46;;;;;;;4.28;3.40;;;;;;;29.71;29.85;96480.16;5054479;28;20017;-70
2021/07/24 08:26:12;;;;;;;4.40;3.92;;;;;;;29.69;30.28;96481.38;5054203;28;20021;-70
2021/07/24 08:28:37;;;;;;;10.18;3.53;;;;;;;29.99;33.11;96479.59;5054237;28;20040;-70
2021/07/24 08:31:03;;;;;;;6.65;3.83;;;;;;;30.22;32.03;96483.28;5054164;28;20017;-70
2021/07/24 08:33:29;;;;;;;4.72;3.45;;;;;;;29.88;31.25;96485.41;5054235;28;20031;-70
2021/07/24 08:35:55;;;;;;;6.07;3.88;;;;;;;29.36;30.40;96482.44;5054108;28;20040;-71
2021/07/24 08:38:21;;;;;;;6.72;4.05;;;;;;;29.42;32.89;96488.94;5053947;28;20044;-72
2021/07/24 08:40:48;;;;;;;6.22;3.58;;;;;;;29.18;30.90;96485.41;5054087;28;20056;-73
2021/07/24 08:43:14;;;;;;;18.08;4.50;;;;;;;29.03;33.06;96482.63;5054006;28;20420;-71
2021/07/24 08:45:40;;;;;;;5.88;3.85;;;;;;;29.41;32.01;96482.75;5053863;28;20018;-72
2021/07/24 08:48:07;;;;;;;9.38;3.88;;;;;;;29.59;32.47;96478.94;5053670;28;20123;-71
2021/07/24 08:50:34;;;;;;;6.93;4.07;;;;;;;29.61;31.02;96472.34;5053696;28;20032;-70
2021/07/24 08:53:07;;;;;;;6.05;3.50;;;;;;;29.75;32.25;96478.81;5053529;28;20041;-71
2021/07/24 08:55:34;;;;;;;9.32;4.03;;;;;;;29.91;32.08;96474.25;5053795;28;20113;-70
2021/07/24 08:58:01;;;;;;;11.38;4.53;;;;;;;29.58;32.14;96485.31;5053697;28;20047;-70
2021/07/24 09:00:28;;;;;;;7.70;4.20;;;;;;;29.40;30.99;96478.34;5052875;28;20029;-73
2021/07/24 09:03:00;;;;;;;6.25;3.75;;;;;;;29.54;32.61;96474.06;5053486;28;20437;-73
2021/07/24 09:05:28;;;;;;;9.63;4.50;;;;;;;29.63;31.09;96477.56;5053477;28;20121;-72
2021/07/24 09:07:55;;;;;;;7.72;3.90;;;;;;;29.64;31.23;96473.81;5053401;28;20029;-74
2021/07/24 09:10:21;;;;;;;7.72;3.85;;;;;;;29.93;30.46;96469.53;5053492;28;20036;-73
2021/07/24 09:12:48;;;;;;;5.15;3.58;;;;;;;29.92;31.06;96465.19;5053465;28;20017;-72
2021/07/24 09:15:18;;;;;;;5.95;3.75;;;;;;;30.09;31.28;96465.84;5053537;28;20063;-70
2021/07/24 09:17:45;;;;;;;5.53;3.90;;;;;;;29.91;31.70;96465.38;5053449;28;20406;-70
2021/07/24 09:20:11;;;;;;;10.05;3.55;;;;;;;29.85;32.40;96462.38;5053409;28;20025;-72
2021/07/24 09:22:42;;;;;;;4.35;3.28;;;;;;;29.73;31.23;96461.13;5053448;28;20147;-72
2021/07/24 09:25:13;;;;;;;11.57;4.10;;;;;;;29.52;31.60;96465.31;5053275;28;20017;-72
2021/07/24 09:27:41;;;;;;;5.60;3.80;;;;;;;29.57;31.16;96462.94;5053188;28;20044;-73
2021/07/24 09:30:10;;;;;;;5.88;3.65;;;;;;;29.85;31.41;96456.13;5053131;28;20029;-72
2021/07/24 09:32:37;;;;;;;6.00;3.40;;;;;;;30.09;31.09;96448.81;5053253;28;20036;-71
2021/07/24 09:35:03;;;;;;;5.97;3.42;;;;;;;30.02;30.66;96457.66;5053153;28;20107;-71
2021/07/24 09:37:30;;;;;;;4.90;3.58;;;;;;;29.38;31.49;96461.56;5053116;28;20025;-71
2021/07/24 09:40:17;;;;;;;5.30;3.30;;;;;;;29.49;32.36;96458.44;5053081;28;20486;-70
2021/07/24 09:42:42;;;;;;;4.53;3.28;;;;;;;29.28;31.88;96458.28;5052623;28;20033;-72
2021/07/24 09:45:09;;;;;;;5.32;3.58;;;;;;;28.91;34.34;96458.78;5053072;28;20371;-71
2021/07/24 09:47:35;;;;;;;5.47;3.83;;;;;;;29.18;33.68;96459.34;5052848;28;20028;-72
2021/07/24 09:50:14;;;;;;;12.77;3.65;;;;;;;29.26;31.16;96448.50;5052907;28;20029;-72
2021/07/24 09:52:51;;;;;;;4.30;3.47;;;;;;;29.61;32.41;96444.56;5052750;28;20143;-72
2021/07/24 09:55:26;;;;;;;7.05;4.00;;;;;;;29.76;32.39;96450.81;5052939;28;20039;-71
2021/07/24 09:57:57;;;;;;;9.50;4.10;;;;;;;29.81;33.33;96447.59;5053092;28;20479;-72
2021/07/24 10:00:34;;;;;;;7.03;3.75;;;;;;;29.95;33.84;96445.09;5052982;28;20035;-73
2021/07/24 10:03:05;;;;;;;9.15;3.70;;;;;;;30.05;32.43;96442.97;5052840;28;20026;-71
2021/07/24 10:05:42;;;;;;;9.73;3.70;;;;;;;30.00;31.58;96453.44;5052756;28;20360;-70
2021/07/24 10:08:13;;;;;;;5.88;4.65;;;;;;;29.83;29.52;96442.00;5052789;28;20079;-71
2021/07/24 10:10:42;;;;;;;5.65;3.88;;;;;;;29.77;31.74;96441.72;5053832;28;20029;-73
2021/07/24 10:13:13;;;;;;;4.25;3.22;;;;;;;30.07;30.05;96438.22;5056730;28;20025;-70
2021/07/24 10:15:45;;;;;;;6.35;3.72;;;;;;;29.99;30.00;96435.63;5056779;28;20048;-69
2021/07/24 10:18:14;;;;;;;5.43;3.97;;;;;;;29.54;30.13;96439.03;5056780;28;20364;-73
2021/07/24 10:20:48;;;;;;;5.70;3.83;;;;;;;29.54;30.93;96439.03;5056732;28;20021;-73
2021/07/24 10:23:17;;;;;;;5.60;4.32;;;;;;;29.75;31.60;96434.84;5056626;28;20036;-72
2021/07/24 10:26:25;;;;;;;6.22;3.30;;;;;;;29.82;30.12;96429.53;5056540;28;20382;-70
2021/07/24 10:29:09;;;;;;;6.53;3.60;;;;;;;29.76;29.78;96428.41;5046891;28;20056;-72
2021/07/24 10:31:48;;;;;;;7.95;3.42;;;;;;;29.41;30.55;96433.44;5056504;28;20470;-72
2021/07/24 10:34:19;;;;;;;7.28;4.40;;;;;;;29.33;30.06;96423.53;5056411;28;20033;-69
2021/07/24 10:36:45;;;;;;;7.95;3.83;;;;;;;29.58;32.09;96426.91;5056520;28;20044;-74
2021/07/24 10:39:17;;;;;;;5.47;4.10;;;;;;;29.57;29.72;96427.94;5056253;28;20071;-72
2021/07/24 10:42:06;;;;;;;6.95;3.78;;;;;;;29.61;31.30;96420.31;5056248;28;20025;-70
2021/07/24 10:44:43;;;;;;;5.97;4.13;;;;;;;29.67;30.93;96416.06;5055722;28;20033;-70
2021/07/24 10:47:16;;;;;;;7.43;4.30;;;;;;;29.57;29.87;96425.25;5056227;28;20021;-71
2021/07/24 10:49:50;;;;;;;9.20;4.13;;;;;;;29.35;29.53;96426.91;5056171;28;20032;-73
2021/07/24 10:52:17;;;;;;;5.60;3.97;;;;;;;29.23;31.05;96427.31;5056123;28;20482;-72
2021/07/24 10:54:53;;;;;;;4.97;4.38;;;;;;;29.08;31.11;96423.75;5055742;28;20155;-73
2021/07/24 10:57:49;;;;;;;6.03;3.47;;;;;;;28.91;31.76;96418.44;5054693;28;20021;-72
2021/07/24 11:00:23;;;;;;;7.60;3.85;;;;;;;29.00;32.37;96424.63;5055831;28;20044;-72
2021/07/24 11:02:50;;;;;;;8.45;3.70;;;;;;;29.20;32.27;96424.97;5055858;28;20047;-72
2021/07/24 11:05:28;;;;;;;6.05;3.72;;;;;;;29.30;30.77;96422.06;5055756;28;20475;-72
2021/07/24 11:08:00;;;;;;;6.63;4.22;;;;;;;29.56;31.49;96411.94;5055594;28;20141;-70
2021/07/24 11:10:32;;;;;;;6.70;4.38;;;;;;;29.74;29.77;96417.81;5055868;28;20083;-71
2021/07/24 11:13:19;;;;;;;6.25;3.80;;;;;;;29.59;30.23;96416.97;5055834;28;20033;-70
2021/07/24 11:15:54;;;;;;;5.20;3.70;;;;;;;29.48;31.79;96415.53;5055594;28;20112;-70
2021/07/24 11:18:24;;;;;;;5.05;3.53;;;;;;;29.46;30.50;96413.00;5055713;28;20037;-73
2021/07/24 11:20:57;;;;;;;6.67;4.23;;;;;;;29.26;30.62;96416.19;5055647;28;20399;-73
2021/07/24 11:23:25;;;;;;;6.43;4.03;;;;;;;29.08;31.57;96413.78;5054981;28;20032;-71
2021/07/24 11:26:02;;;;;;;5.22;3.83;;;;;;;29.10;31.16;96410.91;5055568;28;20035;-71
2021/07/24 11:28:27;;;;;;;8.80;3.70;;;;;;;28.86;32.48;96410.03;5055308;28;20490;-71
2021/07/24 11:31:05;;;;;;;4.70;3.50;;;;;;;28.80;32.42;96416.97;5055425;28;20025;-70
2021/07/24 11:33:32;;;;;;;9.13;3.90;;;;;;;28.74;33.72;96417.69;5055480;28;20065;-73
2021/07/24 11:36:06;;;;;;;4.80;3.33;;;;;;;28.60;33.90;96413.91;5055379;28;20032;-70
2021/07/24 11:38:32;;;;;;;6.15;3.42;;;;;;;28.67;33.31;96412.19;5055396;28;20021;-73